sensor_id;sensor_type;location;lat;lon;timestamp;temperature;humidity
5689;DHT22;2869;50.432;8.680;2023-08-07T00:01:14;12.90;99.90
5689;DHT22;2869;50.432;8.680;2023-08-07T00:03:40;12.90;99.90
5689;DHT22;2869;50.432;8.680;2023-08-07T00:06:07;12.80;99.90
5689;DHT22;2869;50.432;8.680;2023-08-07T00:08:33;12.80;99.90
5689;DHT22;2869;50.432;8.680;2023-08-07T00:11:05;12.80;99.90
5689;DHT22;2869;50.432;8.680;2023-08-07T00:13:33;12.80;99.90
5689;DHT22;2869;50.432;8.680;2023-08-07T00:16:00;12.80;99.90
5689;DHT22;2869;50.432;8.680;2023-08-07T00:18:28;12.80;99.90
5689;DHT22;2869;50.432;8.680;2023-08-07T00:20:54;12.80;99.90
5689;DHT22;2869;50.432;8.680;2023-08-07T00:23:21;12.80;99.90
5689;DHT22;2869;50.432;8.680;2023-08-07T00:25:48;12.70;99.90
5689;DHT22;2869;50.432;8.680;2023-08-07T00:28:14;12.80;99.90
5689;DHT22;2869;50.432;8.680;2023-08-07T00:30:42;12.70;99.90
5689;DHT22;2869;50.432;8.680;2023-08-07T00:33:09;12.70;99.90
5689;DHT22;2869;50.432;8.680;2023-08-07T00:35:36;12.70;99.90
5689;DHT22;2869;50.432;8.680;2023-08-07T00:38:03;12.70;99.90
5689;DHT22;2869;50.432;8.680;2023-08-07T00:40:36;12.70;99.90
5689;DHT22;2869;50.432;8.680;2023-08-07T00:43:03;12.70;99.90
5689;DHT22;2869;50.432;8.680;2023-08-07T00:45:29;12.60;99.90
5689;DHT22;2869;50.432;8.680;2023-08-07T00:47:59;12.60;99.90
5689;DHT22;2869;50.432;8.680;2023-08-07T00:50:28;12.60;99.90
5689;DHT22;2869;50.432;8.680;2023-08-07T00:52:55;12.60;99.90
5689;DHT22;2869;50.432;8.680;2023-08-07T00:55:22;12.50;99.90
5689;DHT22;2869;50.432;8.680;2023-08-07T00:57:49;12.50;99.90
5689;DHT22;2869;50.432;8.680;2023-08-07T01:00:16;12.50;99.90
5689;DHT22;2869;50.432;8.680;2023-08-07T01:02:44;12.50;99.90
5689;DHT22;2869;50.432;8.680;2023-08-07T01:05:12;12.40;99.90
5689;DHT22;2869;50.432;8.680;2023-08-07T01:07:39;12.40;99.90
5689;DHT22;2869;50.432;8.680;2023-08-07T01:10:06;12.40;99.90
5689;DHT22;2869;50.432;8.680;2023-08-07T01:12:38;12.40;99.90
5689;DHT22;2869;50.432;8.680;2023-08-07T01:15:12;12.40;99.90
5689;DHT22;2869;50.432;8.680;2023-08-07T01:17:42;12.40;99.90
5689;DHT22;2869;50.432;8.680;2023-08-07T01:20:12;12.40;99.90
5689;DHT22;2869;50.432;8.680;2023-08-07T01:22:40;12.40;99.90
5689;DHT22;2869;50.432;8.680;2023-08-07T01:25:07;12.40;99.90
5689;DHT22;2869;50.432;8.680;2023-08-07T01:27:36;12.30;99.90
5689;DHT22;2869;50.432;8.680;2023-08-07T01:30:11;12.30;99.90
5689;DHT22;2869;50.432;8.680;2023-08-07T01:32:46;12.30;99.90
5689;DHT22;2869;50.432;8.680;2023-08-07T01:35:15;12.30;99.90
5689;DHT22;2869;50.432;8.680;2023-08-07T01:37:44;12.30;99.90
5689;DHT22;2869;50.432;8.680;2023-08-07T01:40:12;12.30;99.90
5689;DHT22;2869;50.432;8.680;2023-08-07T01:42:40;12.30;99.90
5689;DHT22;2869;50.432;8.680;2023-08-07T01:45:07;12.20;99.90
5689;DHT22;2869;50.432;8.680;2023-08-07T01:47:34;12.20;99.90
5689;DHT22;2869;50.432;8.680;2023-08-07T01:50:00;12.30;99.90
5689;DHT22;2869;50.432;8.680;2023-08-07T01:52:27;12.30;99.90
5689;DHT22;2869;50.432;8.680;2023-08-07T01:54:55;12.20;99.90
5689;DHT22;2869;50.432;8.680;2023-08-07T01:57:22;12.30;99.90
5689;DHT22;2869;50.432;8.680;2023-08-07T01:59:49;12.30;99.90
5689;DHT22;2869;50.432;8.680;2023-08-07T02:02:15;12.30;99.90
5689;DHT22;2869;50.432;8.680;2023-08-07T02:04:42;12.30;99.90
5689;DHT22;2869;50.432;8.680;2023-08-07T02:07:08;12.30;99.90
5689;DHT22;2869;50.432;8.680;2023-08-07T02:09:35;12.30;99.90
5689;DHT22;2869;50.432;8.680;2023-08-07T02:12:04;12.30;99.90
5689;DHT22;2869;50.432;8.680;2023-08-07T02:14:31;12.30;99.90
5689;DHT22;2869;50.432;8.680;2023-08-07T02:16:57;12.30;99.90
5689;DHT22;2869;50.432;8.680;2023-08-07T02:19:24;12.30;99.90
5689;DHT22;2869;50.432;8.680;2023-08-07T02:21:50;12.30;99.90
5689;DHT22;2869;50.432;8.680;2023-08-07T02:24:17;12.30;99.90
5689;DHT22;2869;50.432;8.680;2023-08-07T02:26:45;12.30;99.90
5689;DHT22;2869;50.432;8.680;2023-08-07T02:29:13;12.30;99.90
5689;DHT22;2869;50.432;8.680;2023-08-07T02:31:40;12.30;99.90
5689;DHT22;2869;50.432;8.680;2023-08-07T02:34:06;12.30;99.90
5689;DHT22;2869;50.432;8.680;2023-08-07T02:36:33;12.30;99.90
5689;DHT22;2869;50.432;8.680;2023-08-07T02:39:00;12.30;99.90
5689;DHT22;2869;50.432;8.680;2023-08-07T02:41:26;12.30;99.90
5689;DHT22;2869;50.432;8.680;2023-08-07T02:43:53;12.30;99.90
5689;DHT22;2869;50.432;8.680;2023-08-07T02:46:21;12.20;99.90
5689;DHT22;2869;50.432;8.680;2023-08-07T02:48:48;12.20;99.90
5689;DHT22;2869;50.432;8.680;2023-08-07T02:51:14;12.20;99.90
5689;DHT22;2869;50.432;8.680;2023-08-07T02:53:41;12.20;99.90
5689;DHT22;2869;50.432;8.680;2023-08-07T02:56:08;12.20;99.90
5689;DHT22;2869;50.432;8.680;2023-08-07T02:58:34;12.20;99.90
5689;DHT22;2869;50.432;8.680;2023-08-07T03:01:03;12.20;99.90
5689;DHT22;2869;50.432;8.680;2023-08-07T03:03:32;12.20;99.90
5689;DHT22;2869;50.432;8.680;2023-08-07T03:05:58;12.20;99.90
5689;DHT22;2869;50.432;8.680;2023-08-07T03:08:25;12.20;99.90
5689;DHT22;2869;50.432;8.680;2023-08-07T03:10:53;12.20;99.90
5689;DHT22;2869;50.432;8.680;2023-08-07T03:13:21;12.10;99.90
5689;DHT22;2869;50.432;8.680;2023-08-07T03:15:48;12.20;99.90
5689;DHT22;2869;50.432;8.680;2023-08-07T03:18:15;12.20;99.90
5689;DHT22;2869;50.432;8.680;2023-08-07T03:20:43;12.20;99.90
5689;DHT22;2869;50.432;8.680;2023-08-07T03:23:10;12.10;99.90
5689;DHT22;2869;50.432;8.680;2023-08-07T03:25:37;12.10;99.90
5689;DHT22;2869;50.432;8.680;2023-08-07T03:28:03;12.20;99.90
5689;DHT22;2869;50.432;8.680;2023-08-07T03:30:30;12.10;99.90
5689;DHT22;2869;50.432;8.680;2023-08-07T03:32:57;12.10;99.90
5689;DHT22;2869;50.432;8.680;2023-08-07T03:35:23;12.20;99.90
5689;DHT22;2869;50.432;8.680;2023-08-07T03:37:51;12.20;99.90
5689;DHT22;2869;50.432;8.680;2023-08-07T03:40:18;12.10;99.90
5689;DHT22;2869;50.432;8.680;2023-08-07T03:42:44;12.10;99.90
5689;DHT22;2869;50.432;8.680;2023-08-07T03:45:11;12.20;99.90
5689;DHT22;2869;50.432;8.680;2023-08-07T03:47:38;12.20;99.90
5689;DHT22;2869;50.432;8.680;2023-08-07T03:50:05;12.10;99.90
5689;DHT22;2869;50.432;8.680;2023-08-07T03:52:32;12.10;99.90
5689;DHT22;2869;50.432;8.680;2023-08-07T03:55:00;12.20;99.90
5689;DHT22;2869;50.432;8.680;2023-08-07T03:57:26;12.20;99.90
5689;DHT22;2869;50.432;8.680;2023-08-07T03:59:53;12.20;99.90
5689;DHT22;2869;50.432;8.680;2023-08-07T04:02:20;12.10;99.90
5689;DHT22;2869;50.432;8.680;2023-08-07T04:04:47;12.10;99.90
5689;DHT22;2869;50.432;8.680;2023-08-07T04:07:14;12.10;99.90
5689;DHT22;2869;50.432;8.680;2023-08-07T04:09:40;12.10;99.90
5689;DHT22;2869;50.432;8.680;2023-08-07T04:12:08;12.10;99.90
5689;DHT22;2869;50.432;8.680;2023-08-07T04:14:35;12.10;99.90
5689;DHT22;2869;50.432;8.680;2023-08-07T04:17:02;12.10;99.90
5689;DHT22;2869;50.432;8.680;2023-08-07T04:19:29;12.20;99.90
5689;DHT22;2869;50.432;8.680;2023-08-07T04:21:56;12.20;99.90
5689;DHT22;2869;50.432;8.680;2023-08-07T04:24:22;12.10;99.90
5689;DHT22;2869;50.432;8.680;2023-08-07T04:26:49;12.20;99.90
5689;DHT22;2869;50.432;8.680;2023-08-07T04:29:17;12.20;99.90
5689;DHT22;2869;50.432;8.680;2023-08-07T04:31:43;12.20;99.90
5689;DHT22;2869;50.432;8.680;2023-08-07T04:34:10;12.20;99.90
5689;DHT22;2869;50.432;8.680;2023-08-07T04:36:38;12.10;99.90
5689;DHT22;2869;50.432;8.680;2023-08-07T04:39:04;12.20;99.90
5689;DHT22;2869;50.432;8.680;2023-08-07T04:41:31;12.20;99.90
5689;DHT22;2869;50.432;8.680;2023-08-07T04:43:57;12.20;99.90
5689;DHT22;2869;50.432;8.680;2023-08-07T04:46:26;12.10;99.90
5689;DHT22;2869;50.432;8.680;2023-08-07T04:48:52;12.20;99.90
5689;DHT22;2869;50.432;8.680;2023-08-07T04:51:19;12.10;99.90
5689;DHT22;2869;50.432;8.680;2023-08-07T04:53:46;12.20;99.90
5689;DHT22;2869;50.432;8.680;2023-08-07T04:56:16;12.20;99.90
5689;DHT22;2869;50.432;8.680;2023-08-07T04:58:43;12.20;99.90
5689;DHT22;2869;50.432;8.680;2023-08-07T05:01:09;12.10;99.90
5689;DHT22;2869;50.432;8.680;2023-08-07T05:03:37;12.20;99.90
5689;DHT22;2869;50.432;8.680;2023-08-07T05:06:04;12.20;99.90
5689;DHT22;2869;50.432;8.680;2023-08-07T05:08:31;12.20;99.90
5689;DHT22;2869;50.432;8.680;2023-08-07T05:10:58;12.20;99.90
5689;DHT22;2869;50.432;8.680;2023-08-07T05:13:24;12.20;99.90
5689;DHT22;2869;50.432;8.680;2023-08-07T05:15:51;12.20;99.90
5689;DHT22;2869;50.432;8.680;2023-08-07T05:18:18;12.20;99.90
5689;DHT22;2869;50.432;8.680;2023-08-07T05:20:46;12.30;99.90
5689;DHT22;2869;50.432;8.680;2023-08-07T05:23:12;12.30;99.90
5689;DHT22;2869;50.432;8.680;2023-08-07T05:25:39;12.30;99.90
5689;DHT22;2869;50.432;8.680;2023-08-07T05:28:06;12.30;99.90
5689;DHT22;2869;50.432;8.680;2023-08-07T05:30:33;12.40;99.90
5689;DHT22;2869;50.432;8.680;2023-08-07T05:32:59;12.40;99.90
5689;DHT22;2869;50.432;8.680;2023-08-07T05:35:26;12.40;99.90
5689;DHT22;2869;50.432;8.680;2023-08-07T05:37:54;12.40;99.90
5689;DHT22;2869;50.432;8.680;2023-08-07T05:40:20;12.40;99.90
5689;DHT22;2869;50.432;8.680;2023-08-07T05:42:47;12.40;99.90
5689;DHT22;2869;50.432;8.680;2023-08-07T05:45:14;12.40;99.90
5689;DHT22;2869;50.432;8.680;2023-08-07T05:47:40;12.40;99.90
5689;DHT22;2869;50.432;8.680;2023-08-07T05:50:08;12.50;99.90
5689;DHT22;2869;50.432;8.680;2023-08-07T05:52:34;12.50;99.90
5689;DHT22;2869;50.432;8.680;2023-08-07T05:55:03;12.50;99.90
5689;DHT22;2869;50.432;8.680;2023-08-07T05:57:30;12.50;99.90
5689;DHT22;2869;50.432;8.680;2023-08-07T05:59:56;12.60;99.90
5689;DHT22;2869;50.432;8.680;2023-08-07T06:02:23;12.60;99.90
5689;DHT22;2869;50.432;8.680;2023-08-07T06:04:50;12.60;99.90
5689;DHT22;2869;50.432;8.680;2023-08-07T06:07:18;12.60;99.90
5689;DHT22;2869;50.432;8.680;2023-08-07T06:09:44;12.70;99.90
5689;DHT22;2869;50.432;8.680;2023-08-07T06:12:12;12.70;99.90
5689;DHT22;2869;50.432;8.680;2023-08-07T06:14:39;12.80;99.90
5689;DHT22;2869;50.432;8.680;2023-08-07T06:17:06;12.80;99.90
5689;DHT22;2869;50.432;8.680;2023-08-07T06:19:32;12.90;99.90
5689;DHT22;2869;50.432;8.680;2023-08-07T06:21:59;13.00;99.90
5689;DHT22;2869;50.432;8.680;2023-08-07T06:24:25;13.00;99.90
5689;DHT22;2869;50.432;8.680;2023-08-07T06:26:52;13.10;99.90
5689;DHT22;2869;50.432;8.680;2023-08-07T06:29:20;13.10;99.90
5689;DHT22;2869;50.432;8.680;2023-08-07T06:31:47;13.20;99.90
5689;DHT22;2869;50.432;8.680;2023-08-07T06:34:13;13.20;99.90
5689;DHT22;2869;50.432;8.680;2023-08-07T06:36:40;13.20;99.90
5689;DHT22;2869;50.432;8.680;2023-08-07T06:39:07;13.20;99.90
5689;DHT22;2869;50.432;8.680;2023-08-07T06:41:35;13.10;99.90
5689;DHT22;2869;50.432;8.680;2023-08-07T06:44:02;13.10;99.90
5689;DHT22;2869;50.432;8.680;2023-08-07T06:46:30;13.10;99.90
5689;DHT22;2869;50.432;8.680;2023-08-07T06:48:56;13.10;99.90
5689;DHT22;2869;50.432;8.680;2023-08-07T06:51:23;13.10;99.90
5689;DHT22;2869;50.432;8.680;2023-08-07T06:53:49;13.20;99.90
5689;DHT22;2869;50.432;8.680;2023-08-07T06:56:16;13.20;99.90
5689;DHT22;2869;50.432;8.680;2023-08-07T06:58:43;13.20;99.90
5689;DHT22;2869;50.432;8.680;2023-08-07T07:01:10;13.30;99.90
5689;DHT22;2869;50.432;8.680;2023-08-07T07:03:38;13.30;99.90
5689;DHT22;2869;50.432;8.680;2023-08-07T07:06:04;13.30;99.90
5689;DHT22;2869;50.432;8.680;2023-08-07T07:08:31;13.30;99.90
5689;DHT22;2869;50.432;8.680;2023-08-07T07:10:58;13.40;99.90
5689;DHT22;2869;50.432;8.680;2023-08-07T07:13:24;13.50;99.90
5689;DHT22;2869;50.432;8.680;2023-08-07T07:15:54;13.50;99.90
5689;DHT22;2869;50.432;8.680;2023-08-07T07:18:21;13.50;99.90
5689;DHT22;2869;50.432;8.680;2023-08-07T07:20:56;13.50;99.90
5689;DHT22;2869;50.432;8.680;2023-08-07T07:23:22;13.50;99.90
5689;DHT22;2869;50.432;8.680;2023-08-07T07:25:49;13.60;99.90
5689;DHT22;2869;50.432;8.680;2023-08-07T07:28:16;13.60;99.90
5689;DHT22;2869;50.432;8.680;2023-08-07T07:30:42;13.50;99.90
5689;DHT22;2869;50.432;8.680;2023-08-07T07:33:09;13.50;99.90
5689;DHT22;2869;50.432;8.680;2023-08-07T07:35:37;13.60;99.90
5689;DHT22;2869;50.432;8.680;2023-08-07T07:38:06;13.60;99.90
5689;DHT22;2869;50.432;8.680;2023-08-07T07:40:34;13.70;99.90
5689;DHT22;2869;50.432;8.680;2023-08-07T07:43:00;13.70;99.90
5689;DHT22;2869;50.432;8.680;2023-08-07T07:45:27;13.70;99.90
5689;DHT22;2869;50.432;8.680;2023-08-07T07:47:54;13.70;99.90
5689;DHT22;2869;50.432;8.680;2023-08-07T07:50:21;13.70;99.90
5689;DHT22;2869;50.432;8.680;2023-08-07T07:52:48;13.70;99.90
5689;DHT22;2869;50.432;8.680;2023-08-07T07:55:16;13.70;99.90
5689;DHT22;2869;50.432;8.680;2023-08-07T07:57:43;13.70;99.90
5689;DHT22;2869;50.432;8.680;2023-08-07T08:00:11;13.80;99.90
5689;DHT22;2869;50.432;8.680;2023-08-07T08:02:40;13.80;99.90
5689;DHT22;2869;50.432;8.680;2023-08-07T08:05:08;13.70;99.90
5689;DHT22;2869;50.432;8.680;2023-08-07T08:07:36;13.70;99.90
5689;DHT22;2869;50.432;8.680;2023-08-07T08:10:05;13.60;99.90
5689;DHT22;2869;50.432;8.680;2023-08-07T08:12:33;13.80;99.90
5689;DHT22;2869;50.432;8.680;2023-08-07T08:14:59;13.80;99.90
5689;DHT22;2869;50.432;8.680;2023-08-07T08:17:26;13.90;99.90
5689;DHT22;2869;50.432;8.680;2023-08-07T08:19:53;14.00;99.90
5689;DHT22;2869;50.432;8.680;2023-08-07T08:22:19;14.10;99.90
5689;DHT22;2869;50.432;8.680;2023-08-07T08:24:46;14.00;99.90
5689;DHT22;2869;50.432;8.680;2023-08-07T08:27:13;14.00;99.90
5689;DHT22;2869;50.432;8.680;2023-08-07T08:29:41;14.00;99.90
5689;DHT22;2869;50.432;8.680;2023-08-07T08:32:08;14.10;99.90
5689;DHT22;2869;50.432;8.680;2023-08-07T08:34:35;14.00;99.90
5689;DHT22;2869;50.432;8.680;2023-08-07T08:37:02;13.90;99.90
5689;DHT22;2869;50.432;8.680;2023-08-07T08:39:31;13.90;99.90
5689;DHT22;2869;50.432;8.680;2023-08-07T08:41:59;13.90;99.90
5689;DHT22;2869;50.432;8.680;2023-08-07T08:44:26;13.90;99.90
5689;DHT22;2869;50.432;8.680;2023-08-07T08:46:59;13.80;99.90
5689;DHT22;2869;50.432;8.680;2023-08-07T08:49:30;13.90;99.90
5689;DHT22;2869;50.432;8.680;2023-08-07T08:51:59;14.00;99.90
5689;DHT22;2869;50.432;8.680;2023-08-07T08:54:26;14.00;99.90
5689;DHT22;2869;50.432;8.680;2023-08-07T08:56:53;14.00;99.90
5689;DHT22;2869;50.432;8.680;2023-08-07T08:59:20;14.10;99.90
5689;DHT22;2869;50.432;8.680;2023-08-07T09:01:48;14.10;99.90
5689;DHT22;2869;50.432;8.680;2023-08-07T09:04:19;14.00;99.90
5689;DHT22;2869;50.432;8.680;2023-08-07T09:06:46;14.00;99.90
5689;DHT22;2869;50.432;8.680;2023-08-07T09:09:14;14.00;99.90
5689;DHT22;2869;50.432;8.680;2023-08-07T09:11:41;14.00;99.90
5689;DHT22;2869;50.432;8.680;2023-08-07T09:14:08;14.00;99.90
5689;DHT22;2869;50.432;8.680;2023-08-07T09:16:36;13.90;99.90
5689;DHT22;2869;50.432;8.680;2023-08-07T09:19:04;13.90;99.90
5689;DHT22;2869;50.432;8.680;2023-08-07T09:21:33;13.90;99.90
5689;DHT22;2869;50.432;8.680;2023-08-07T09:24:00;13.80;99.90
5689;DHT22;2869;50.432;8.680;2023-08-07T09:26:28;13.80;99.90
5689;DHT22;2869;50.432;8.680;2023-08-07T09:28:54;13.80;99.90
5689;DHT22;2869;50.432;8.680;2023-08-07T09:31:22;13.90;99.90
5689;DHT22;2869;50.432;8.680;2023-08-07T09:33:51;13.90;99.90
5689;DHT22;2869;50.432;8.680;2023-08-07T09:36:18;13.90;99.90
5689;DHT22;2869;50.432;8.680;2023-08-07T09:38:50;14.00;99.90
5689;DHT22;2869;50.432;8.680;2023-08-07T09:41:17;14.10;99.90
5689;DHT22;2869;50.432;8.680;2023-08-07T09:43:44;14.10;99.90
5689;DHT22;2869;50.432;8.680;2023-08-07T09:46:11;14.30;99.90
5689;DHT22;2869;50.432;8.680;2023-08-07T09:48:42;14.40;99.90
5689;DHT22;2869;50.432;8.680;2023-08-07T09:51:09;14.50;99.90
5689;DHT22;2869;50.432;8.680;2023-08-07T09:53:37;14.50;99.90
5689;DHT22;2869;50.432;8.680;2023-08-07T09:56:06;14.50;99.90
5689;DHT22;2869;50.432;8.680;2023-08-07T09:58:33;14.70;99.90
5689;DHT22;2869;50.432;8.680;2023-08-07T10:01:00;14.80;99.90
5689;DHT22;2869;50.432;8.680;2023-08-07T10:03:27;14.80;99.90
5689;DHT22;2869;50.432;8.680;2023-08-07T10:05:54;14.80;99.90
5689;DHT22;2869;50.432;8.680;2023-08-07T10:08:21;14.70;99.90
5689;DHT22;2869;50.432;8.680;2023-08-07T10:10:48;14.80;99.90
5689;DHT22;2869;50.432;8.680;2023-08-07T10:13:17;14.90;99.90
5689;DHT22;2869;50.432;8.680;2023-08-07T10:15:44;14.70;99.90
5689;DHT22;2869;50.432;8.680;2023-08-07T10:18:12;14.80;99.90
5689;DHT22;2869;50.432;8.680;2023-08-07T10:20:39;14.90;99.90
5689;DHT22;2869;50.432;8.680;2023-08-07T10:23:09;14.80;99.90
5689;DHT22;2869;50.432;8.680;2023-08-07T10:25:39;14.70;99.90
5689;DHT22;2869;50.432;8.680;2023-08-07T10:28:09;14.90;99.90
5689;DHT22;2869;50.432;8.680;2023-08-07T10:30:38;15.10;99.90
5689;DHT22;2869;50.432;8.680;2023-08-07T10:33:07;14.90;99.90
5689;DHT22;2869;50.432;8.680;2023-08-07T10:35:35;15.00;99.90
5689;DHT22;2869;50.432;8.680;2023-08-07T10:38:06;14.90;99.90
5689;DHT22;2869;50.432;8.680;2023-08-07T10:40:34;14.90;99.90
5689;DHT22;2869;50.432;8.680;2023-08-07T10:43:12;15.20;99.90
5689;DHT22;2869;50.432;8.680;2023-08-07T10:45:41;15.80;99.90
5689;DHT22;2869;50.432;8.680;2023-08-07T10:48:10;16.00;99.90
5689;DHT22;2869;50.432;8.680;2023-08-07T10:50:49;16.20;99.90
5689;DHT22;2869;50.432;8.680;2023-08-07T10:53:19;16.20;99.90
5689;DHT22;2869;50.432;8.680;2023-08-07T10:55:47;16.10;99.90
5689;DHT22;2869;50.432;8.680;2023-08-07T10:58:24;16.20;99.90
5689;DHT22;2869;50.432;8.680;2023-08-07T11:03:35;16.30;99.90
5689;DHT22;2869;50.432;8.680;2023-08-07T11:06:02;16.30;99.90
5689;DHT22;2869;50.432;8.680;2023-08-07T11:08:29;16.30;99.90
5689;DHT22;2869;50.432;8.680;2023-08-07T11:10:59;16.30;99.90
5689;DHT22;2869;50.432;8.680;2023-08-07T11:13:30;16.20;99.90
5689;DHT22;2869;50.432;8.680;2023-08-07T11:15:58;16.30;99.90
5689;DHT22;2869;50.432;8.680;2023-08-07T11:18:26;16.30;99.90
5689;DHT22;2869;50.432;8.680;2023-08-07T11:20:53;16.30;99.90
5689;DHT22;2869;50.432;8.680;2023-08-07T11:23:23;16.40;99.90
5689;DHT22;2869;50.432;8.680;2023-08-07T11:25:50;16.50;99.90
5689;DHT22;2869;50.432;8.680;2023-08-07T11:28:18;16.70;99.90
5689;DHT22;2869;50.432;8.680;2023-08-07T11:30:45;16.50;99.90
5689;DHT22;2869;50.432;8.680;2023-08-07T11:33:13;16.60;99.90
5689;DHT22;2869;50.432;8.680;2023-08-07T11:35:41;16.70;99.90
5689;DHT22;2869;50.432;8.680;2023-08-07T11:38:08;16.70;99.90
5689;DHT22;2869;50.432;8.680;2023-08-07T11:40:35;16.80;99.90
5689;DHT22;2869;50.432;8.680;2023-08-07T11:43:01;16.90;99.90
5689;DHT22;2869;50.432;8.680;2023-08-07T11:45:28;16.70;99.90
5689;DHT22;2869;50.432;8.680;2023-08-07T11:47:55;16.60;99.90
5689;DHT22;2869;50.432;8.680;2023-08-07T11:50:24;16.40;99.90
5689;DHT22;2869;50.432;8.680;2023-08-07T11:52:51;16.40;99.90
5689;DHT22;2869;50.432;8.680;2023-08-07T11:55:18;16.50;99.90
5689;DHT22;2869;50.432;8.680;2023-08-07T11:57:46;16.70;99.90
5689;DHT22;2869;50.432;8.680;2023-08-07T12:00:13;16.80;99.90
5689;DHT22;2869;50.432;8.680;2023-08-07T12:02:42;16.90;99.90
5689;DHT22;2869;50.432;8.680;2023-08-07T12:05:09;16.90;99.90
5689;DHT22;2869;50.432;8.680;2023-08-07T12:07:39;17.00;99.90
5689;DHT22;2869;50.432;8.680;2023-08-07T12:10:07;17.20;99.90
5689;DHT22;2869;50.432;8.680;2023-08-07T12:12:36;17.10;99.90
5689;DHT22;2869;50.432;8.680;2023-08-07T12:15:03;17.10;99.90
5689;DHT22;2869;50.432;8.680;2023-08-07T12:17:31;17.10;99.90
5689;DHT22;2869;50.432;8.680;2023-08-07T12:19:58;17.20;99.90
5689;DHT22;2869;50.432;8.680;2023-08-07T12:22:27;17.20;99.90
5689;DHT22;2869;50.432;8.680;2023-08-07T12:24:55;17.40;99.90
5689;DHT22;2869;50.432;8.680;2023-08-07T12:27:22;17.60;99.90
5689;DHT22;2869;50.432;8.680;2023-08-07T12:29:48;17.80;99.90
5689;DHT22;2869;50.432;8.680;2023-08-07T12:32:15;17.90;99.90
5689;DHT22;2869;50.432;8.680;2023-08-07T12:34:41;18.20;99.90
5689;DHT22;2869;50.432;8.680;2023-08-07T12:37:08;18.70;99.90
5689;DHT22;2869;50.432;8.680;2023-08-07T12:39:35;19.00;99.90
5689;DHT22;2869;50.432;8.680;2023-08-07T12:42:03;18.90;99.90
5689;DHT22;2869;50.432;8.680;2023-08-07T12:44:30;18.90;99.90
5689;DHT22;2869;50.432;8.680;2023-08-07T12:46:58;19.00;99.90
5689;DHT22;2869;50.432;8.680;2023-08-07T12:49:25;19.30;99.90
5689;DHT22;2869;50.432;8.680;2023-08-07T12:51:51;19.80;99.90
5689;DHT22;2869;50.432;8.680;2023-08-07T12:54:19;19.90;99.90
5689;DHT22;2869;50.432;8.680;2023-08-07T12:56:45;19.90;99.90
5689;DHT22;2869;50.432;8.680;2023-08-07T12:59:13;20.00;99.90
5689;DHT22;2869;50.432;8.680;2023-08-07T13:01:40;19.90;99.90
5689;DHT22;2869;50.432;8.680;2023-08-07T13:04:06;20.10;99.90
5689;DHT22;2869;50.432;8.680;2023-08-07T13:06:34;20.30;99.90
5689;DHT22;2869;50.432;8.680;2023-08-07T13:09:00;20.40;99.90
5689;DHT22;2869;50.432;8.680;2023-08-07T13:11:27;20.20;99.90
5689;DHT22;2869;50.432;8.680;2023-08-07T13:13:54;20.50;99.90
5689;DHT22;2869;50.432;8.680;2023-08-07T13:16:22;20.80;99.90
5689;DHT22;2869;50.432;8.680;2023-08-07T13:18:48;21.00;99.90
5689;DHT22;2869;50.432;8.680;2023-08-07T13:21:15;21.30;99.90
5689;DHT22;2869;50.432;8.680;2023-08-07T13:23:41;21.50;99.90
5689;DHT22;2869;50.432;8.680;2023-08-07T13:26:08;21.30;99.90
5689;DHT22;2869;50.432;8.680;2023-08-07T13:28:35;21.60;99.90
5689;DHT22;2869;50.432;8.680;2023-08-07T13:31:01;21.80;99.90
5689;DHT22;2869;50.432;8.680;2023-08-07T13:33:29;21.50;99.90
5689;DHT22;2869;50.432;8.680;2023-08-07T13:35:56;20.80;99.90
5689;DHT22;2869;50.432;8.680;2023-08-07T13:38:23;21.00;99.90
5689;DHT22;2869;50.432;8.680;2023-08-07T13:40:50;21.10;99.90
5689;DHT22;2869;50.432;8.680;2023-08-07T13:43:17;21.20;99.90
5689;DHT22;2869;50.432;8.680;2023-08-07T13:45:44;20.80;99.90
5689;DHT22;2869;50.432;8.680;2023-08-07T13:48:11;20.80;99.90
5689;DHT22;2869;50.432;8.680;2023-08-07T13:50:39;21.00;99.90
5689;DHT22;2869;50.432;8.680;2023-08-07T13:53:06;20.40;99.90
5689;DHT22;2869;50.432;8.680;2023-08-07T13:55:33;20.60;99.90
5689;DHT22;2869;50.432;8.680;2023-08-07T13:57:59;20.70;99.90
5689;DHT22;2869;50.432;8.680;2023-08-07T14:00:26;21.00;99.90
5689;DHT22;2869;50.432;8.680;2023-08-07T14:02:53;21.10;99.90
5689;DHT22;2869;50.432;8.680;2023-08-07T14:05:20;21.40;99.90
5689;DHT22;2869;50.432;8.680;2023-08-07T14:07:48;21.20;99.90
5689;DHT22;2869;50.432;8.680;2023-08-07T14:10:15;21.10;99.90
5689;DHT22;2869;50.432;8.680;2023-08-07T14:12:41;21.30;99.90
5689;DHT22;2869;50.432;8.680;2023-08-07T14:15:08;21.30;99.90
5689;DHT22;2869;50.432;8.680;2023-08-07T14:17:37;21.20;99.90
5689;DHT22;2869;50.432;8.680;2023-08-07T14:20:04;21.30;99.90
5689;DHT22;2869;50.432;8.680;2023-08-07T14:22:31;21.20;99.90
5689;DHT22;2869;50.432;8.680;2023-08-07T14:25:01;21.00;99.90
5689;DHT22;2869;50.432;8.680;2023-08-07T14:27:28;20.30;99.90
5689;DHT22;2869;50.432;8.680;2023-08-07T14:29:55;20.10;99.90
5689;DHT22;2869;50.432;8.680;2023-08-07T14:32:22;20.00;99.90
5689;DHT22;2869;50.432;8.680;2023-08-07T14:34:49;20.00;99.90
5689;DHT22;2869;50.432;8.680;2023-08-07T14:37:15;20.30;99.90
5689;DHT22;2869;50.432;8.680;2023-08-07T14:39:42;20.50;99.90
5689;DHT22;2869;50.432;8.680;2023-08-07T14:42:10;20.90;99.90
5689;DHT22;2869;50.432;8.680;2023-08-07T14:44:36;20.90;99.90
5689;DHT22;2869;50.432;8.680;2023-08-07T14:47:03;20.80;99.90
5689;DHT22;2869;50.432;8.680;2023-08-07T14:49:30;20.90;99.90
5689;DHT22;2869;50.432;8.680;2023-08-07T14:51:56;21.10;99.90
5689;DHT22;2869;50.432;8.680;2023-08-07T14:54:23;21.10;99.90
5689;DHT22;2869;50.432;8.680;2023-08-07T14:56:50;21.30;99.90
5689;DHT22;2869;50.432;8.680;2023-08-07T14:59:18;21.60;99.90
5689;DHT22;2869;50.432;8.680;2023-08-07T15:01:44;21.80;99.90
5689;DHT22;2869;50.432;8.680;2023-08-07T15:04:11;21.80;99.90
5689;DHT22;2869;50.432;8.680;2023-08-07T15:06:39;21.90;99.90
5689;DHT22;2869;50.432;8.680;2023-08-07T15:09:07;21.80;99.90
5689;DHT22;2869;50.432;8.680;2023-08-07T15:11:34;21.80;99.90
5689;DHT22;2869;50.432;8.680;2023-08-07T15:14:01;21.40;99.90
5689;DHT22;2869;50.432;8.680;2023-08-07T15:16:31;21.40;99.90
5689;DHT22;2869;50.432;8.680;2023-08-07T15:18:58;21.50;99.90
5689;DHT22;2869;50.432;8.680;2023-08-07T15:21:24;21.30;99.90
5689;DHT22;2869;50.432;8.680;2023-08-07T15:23:51;21.10;99.90
5689;DHT22;2869;50.432;8.680;2023-08-07T15:26:18;21.00;99.90
5689;DHT22;2869;50.432;8.680;2023-08-07T15:28:44;21.00;99.90
5689;DHT22;2869;50.432;8.680;2023-08-07T15:31:11;21.10;99.90
5689;DHT22;2869;50.432;8.680;2023-08-07T15:33:39;21.10;99.90
5689;DHT22;2869;50.432;8.680;2023-08-07T15:36:07;21.20;99.90
5689;DHT22;2869;50.432;8.680;2023-08-07T15:38:34;21.20;99.90
5689;DHT22;2869;50.432;8.680;2023-08-07T15:41:03;21.30;99.90
5689;DHT22;2869;50.432;8.680;2023-08-07T15:43:30;21.30;99.90
5689;DHT22;2869;50.432;8.680;2023-08-07T15:45:57;21.10;99.90
5689;DHT22;2869;50.432;8.680;2023-08-07T15:48:23;21.10;99.90
5689;DHT22;2869;50.432;8.680;2023-08-07T15:50:51;21.10;99.90
5689;DHT22;2869;50.432;8.680;2023-08-07T15:53:18;21.10;99.90
5689;DHT22;2869;50.432;8.680;2023-08-07T15:55:45;21.10;99.90
5689;DHT22;2869;50.432;8.680;2023-08-07T15:58:12;21.00;99.90
5689;DHT22;2869;50.432;8.680;2023-08-07T16:00:38;20.90;99.90
5689;DHT22;2869;50.432;8.680;2023-08-07T16:03:06;20.90;99.90
5689;DHT22;2869;50.432;8.680;2023-08-07T16:05:34;20.70;99.90